Ararat, Virginia
Current Conditions -  °F | °C
As of 7:15 PM on Sunday 23 Nov 2014 (Local Time) from KMWK Reporting Station
Moderate Rain Moderate Rain  
Wind Chill: 44°   Ceiling: 1300
Heat Index: 50°   Visibility: 3mi
Dew Point: 47°   Wind: 16mph
Humidity: 92%   Direction: 60°ENE
Pressure: 29.84"   Gusts: 24mph
Location:  36.6°N, 80.51°W
Report Text: KMWK 240015Z AUTO 06014G21KT 3SM RA SCT005 BKN013 OVC025 10/09 A2984 RMK AO2 P0006 T00980085
Loading
Personal Weather Stations






























Interactive Weather Map New forecast layout! Learn more

10-Day Weather Forecast

Advertisements
Track Severe Weather on mobile